• Join FlightAware (Why Join?)
  • Login
  • US Flag 
05:36PM EDT


 

Airport Tracker/Info


-or-


 

Live Flight TrackerFlight Track Log ✈ AAL2360 ✈ 23-Apr-2013 ✈ KDFW - KORD

Flight Track Log - Related Links

Times and Time Zones

All times are in EDT time to prevent confusion due to time zone crossing. See the AAL2360 flight status page for this flight to view local times or setup timezone preferences in your user account.

Time Position Orientation Groundspeed Altitude Reporting Facility
EDT Latitude Longitude Course Direction KTS MPH feet Rate Location/Type
03:55PM 32.9333 -97.0333 360° North 171 197 2,600  Level Dallas / Fort Worth TRACON
03:56PM 33.0000 -97.0333 360° North 257 296 4,300 2,400 Climbing Dallas / Fort Worth TRACON
03:58PM 33.1269 -96.9992 13° North 281 323 9,400 2,580 Climbing Fort Worth Center
03:59PM 33.2208 -96.9492 24° Northeast 317 365 11,500 1,800 Climbing Fort Worth Center
04:00PM 33.3144 -96.8989 24° Northeast 376 433 13,100 2,340 Climbing Fort Worth Center
04:01PM 33.4333 -96.8311 25° Northeast 418 481 16,200 2,520 Climbing Fort Worth Center
04:02PM 33.5353 -96.7706 26° Northeast 439 505 18,200 2,100 Climbing Fort Worth Center
04:03PM 33.6600 -96.6897 28° Northeast 457 526 20,500 2,040 Climbing Fort Worth Center
04:04PM 33.7764 -96.6164 28° Northeast 463 533 22,300 1,800 Climbing Fort Worth Center
04:05PM 33.8947 -96.5378 29° Northeast 468 539 24,200 1,620 Climbing Fort Worth Center
04:06PM 34.0194 -96.4589 28° Northeast 481 554 25,600 1,260 Climbing Fort Worth Center
04:07PM 34.1211 -96.3772 34° Northeast 481 554 26,800 660 Climbing Fort Worth Center
04:08PM 34.2372 -96.2856 33° Northeast 486 559 27,000 120 Climbing Fort Worth Center
04:09PM 34.3511 -96.1911 34° Northeast 497 572 27,100 960 Climbing Fort Worth Center
04:10PM 34.4711 -96.0936 34° Northeast 505 581 29,000 1,620 Climbing Fort Worth Center
04:11PM 34.5869 -95.9986 34° Northeast 505 581 30,400 1,320 Climbing Fort Worth Center
04:12PM 34.7025 -95.9006 35° Northeast 505 581 31,700 1,140 Climbing Fort Worth Center
04:13PM 34.8161 -95.8025 35° Northeast 505 581 32,700 900 Climbing Fort Worth Center
04:14PM 34.9375 -95.6811 39° Northeast 505 581 33,500 720 Climbing Fort Worth Center
04:15PM 35.0400 -95.5625 43° Northeast 505 581 34,200 600 Climbing Fort Worth Center
04:16PM 35.1406 -95.4408 45° Northeast 505 581 34,700 360 Climbing Fort Worth Center
04:17PM 35.2428 -95.3242 43° Northeast 500 575 35,000 180 Climbing Fort Worth Center
04:17PM 35.2989 -95.2594 43° Northeast 491 565 35,000  Level Memphis Center
04:18PM 35.3994 -95.1406 44° Northeast 486 559 35,000  Level Memphis Center
04:19PM 35.5022 -95.0189 44° Northeast 493 567 35,000  Level Memphis Center
04:20PM 35.6025 -94.8994 44° Northeast 500 575 35,000  Level Memphis Center
04:21PM 35.7028 -94.7769 45° Northeast 500 575 35,000  Level Memphis Center
04:22PM 35.8031 -94.6569 44° Northeast 500 575 35,000  Level Memphis Center
04:23PM 35.9053 -94.5342 44° Northeast 500 575 35,000  Level Memphis Center
04:24PM 36.0050 -94.4136 44° Northeast 500 575 35,000  Level Memphis Center
04:26PM 36.1211 -94.3366 28° Northeast  Level FlightAware Approximate
04:26PM 36.2044 -94.1714 28° Northeast 500 575 35,000  Level Memphis Center
04:27PM 36.3181 -94.0736 35° Northeast 500 575 35,000  Level Memphis Center
04:29PM 36.4617 -93.9711 30° Northeast 498 573 35,000  Level Kansas City Center
04:30PM 36.5803 -93.8875 30° Northeast 495 570 35,000  Level Kansas City Center
04:31PM 36.6989 -93.8028 30° Northeast 493 567 35,000  Level Kansas City Center
04:32PM 36.8192 -93.7181 29° Northeast 492 566 35,000  Level Kansas City Center
04:33PM 36.9475 -93.6275 29° Northeast 491 565 35,000  Level Kansas City Center
04:34PM 37.0675 -93.5414 30° Northeast 493 567 35,000  Level Kansas City Center
04:35PM 37.1878 -93.4558 30° Northeast 494 568 35,000  Level Kansas City Center
04:36PM 37.3081 -93.3739 28° Northeast 491 565 35,000  Level Kansas City Center
04:37PM 37.4208 -93.2800 33° Northeast 485 558 35,000  Level Kansas City Center
04:38PM 37.5508 -93.1553 37° Northeast 487 560 35,000  Level Kansas City Center
04:39PM 37.6631 -93.0528 36° Northeast 491 565 35,000  Level Kansas City Center
04:40PM 37.7731 -92.9472 37° Northeast 492 566 35,000  Level Kansas City Center
04:41PM 37.8844 -92.8442 36° Northeast 492 566 35,000  Level Kansas City Center
04:42PM 37.9944 -92.7433 36° Northeast 489 563 35,000  Level Kansas City Center
04:43PM 38.1044 -92.6361 37° Northeast 495 570 35,000  Level Kansas City Center
04:44PM 38.2217 -92.5289 36° Northeast 493 567 35,000  Level Kansas City Center
04:45PM 38.3325 -92.4231 37° Northeast 492 566 35,000  Level Kansas City Center
04:46PM 38.4406 -92.3178 37° Northeast 486 559 35,000  Level Kansas City Center
04:47PM 38.5492 -92.2136 37° Northeast 485 558 35,000  Level Kansas City Center
04:48PM 38.6589 -92.1086 37° Northeast 488 562 35,000  Level Kansas City Center
04:49PM 38.7886 -91.9831 37° Northeast 486 559 35,000  Level Kansas City Center
04:50PM 38.8978 -91.8789 37° Northeast 486 559 35,000  Level Kansas City Center
04:51PM 39.0058 -91.7725 37° Northeast 486 559 35,000  Level Kansas City Center
04:52PM 39.1028 -91.6772 37° Northeast 488 562 35,000  Level Kansas City Center
04:53PM 39.2353 -91.5486 37° Northeast 493 567 35,000  Level Kansas City Center
04:54PM 39.3450 -91.4397 37° Northeast 495 570 35,000  Level Kansas City Center
04:55PM 39.4547 -91.3319 37° Northeast 495 570 35,000  Level Kansas City Center
04:57PM 39.5644 -91.2225 38° Northeast 496 571 35,000  Level Kansas City Center
04:58PM 39.6725 -91.1144 38° Northeast 493 567 35,000 -540 Level Kansas City Center
04:59PM 39.7889 -90.9983 37° Northeast 495 570 34,000 -960 Descending Kansas City Center
05:00PM 39.8903 -90.8969 37° Northeast 493 567 33,100 -540 Descending Kansas City Center
05:01PM 40.0222 -90.7644 38° Northeast 495 570 33,000 -60 Descending Kansas City Center
05:02PM 40.1336 -90.6578 36° Northeast 500 575 33,000  Level Kansas City Center
05:02PM 40.1550 -90.6236 51° Northeast 507 583 33,000  Level Chicago Center
05:03PM 40.2708 -90.4681 46° Northeast 511 588 33,000 -480 Level Chicago Center
05:04PM 40.3883 -90.3681 33° Northeast 498 573 32,100 -900 Descending Chicago Center
05:05PM 40.5003 -90.2594 36° Northeast 499 574 31,200 -540 Descending Chicago Center
05:06PM 40.6086 -90.1503 37° Northeast 506 582 31,000 -360 Descending Chicago Center
05:07PM 40.7467 -90.0100 38° Northeast 522 601 30,500 -1,260 Descending Chicago Center
05:08PM 40.8614 -89.8925 38° Northeast 523 602 28,400 -2,040 Descending Chicago Center
05:09PM 40.9758 -89.7756 38° Northeast 522 601 26,300 -1,980 Descending Chicago Center
05:10PM 41.0842 -89.6639 38° Northeast 529 609 24,300 -1,380 Descending Chicago Center
05:11PM 41.1983 -89.4928 48° Northeast 522 601 23,500 -1,260 Descending Chicago Center
05:12PM 41.2617 -89.3356 62° Northeast 488 562 21,800 -1,500 Descending Chicago Center
05:13PM 41.2783 -89.1750 82° East 431 496 20,500 -1,500 Descending Chicago Center
05:14PM 41.2872 -89.0256 85° East 410 472 18,800 -1,860 Descending Chicago Center
05:15PM 41.3378 -88.8986 62° Northeast 398 458 16,700 -1,800 Descending Chicago Center
05:16PM 41.4081 -88.7972 47° Northeast 375 432 15,100 -1,740 Descending Chicago Center
05:17PM 41.4753 -88.6994 47° Northeast 363 418 13,200 -1,860 Descending Chicago Center
05:19PM 41.5542 -88.5847 47° Northeast 350 403 11,300 -1,080 Descending Chicago Center
05:20PM 41.6050 -88.4761 58° Northeast 347 399 11,000 -660 Descending Chicago Center
05:21PM 41.6619 -88.3731 53° Northeast 346 398 10,000 -1,140 Descending Chicago Center
05:22PM 41.7189 -88.2764 52° Northeast 333 383 8,700 -1,080 Descending Chicago Center
05:23PM 41.7731 -88.1828 52° Northeast 322 371 7,800 -840 Descending Chicago Center
05:24PM 41.8258 -88.0922 52° Northeast 311 358 7,000 -420 Descending Chicago Center
05:25PM 41.8561 -87.9644 72° East 305 351 7,000  Level Chicago Center
05:26PM 41.8742 -87.8547 78° East 301 346 7,000 -480 Level Chicago Center
05:27PM 41.8828 -87.7569 83° East 276 318 6,100 -900 Descending Chicago Center
05:28PM 41.8839 -87.6642 89° East 252 290 5,200 -540 Descending Chicago Center
05:29PM 41.8833 -87.5667 90° East 202 232 5,000 -120 Descending Chicago TRACON
05:30PM 41.8833 -87.5000 90° East 202 232 5,000  Level Chicago TRACON
05:31PM 41.8833 -87.4333 90° East 201 231 5,000  Level Chicago TRACON
05:32PM 41.8833 -87.3500 90° East 200 230 5,000  Level Chicago TRACON
05:33PM 41.9333 -87.3333 14° North 199 229 5,000  Level Chicago TRACON
05:33PM 41.9453 -87.3408 335° Northwest 199 229 5,000 60 Level Chicago Center
05:34PM 41.9697 -87.3819 309° West 180 207 5,100  Climbing Chicago Center
05:35PM 41.9667 -87.4167 263° West 153 176 5,000 -120 Descending Chicago TRACON
05:36PM 41.9667 -87.4833 270° West 150 173 5,000  Level Chicago TRACON
05:37PM 41.9667 -87.5333 270° West 153 176 5,000 -60 Level Chicago TRACON
05:38PM 41.9667 -87.6000 270° West 156 180 4,900 -480 Descending Chicago TRACON
05:39PM 41.9667 -87.6500 270° West 161 185 4,100 -900 Descending Chicago TRACON